sensor_id;sensor_type;location;lat;lon;timestamp;P1;durP1;ratioP1;P2;durP2;ratioP2
10884;SDS011;5495;53.252;10.390;2023-01-30T00:02:02;27.40;;;16.07;;
10884;SDS011;5495;53.252;10.390;2023-01-30T00:04:31;28.93;;;16.47;;
10884;SDS011;5495;53.252;10.390;2023-01-30T00:07:16;30.07;;;18.27;;
10884;SDS011;5495;53.252;10.390;2023-01-30T00:09:43;28.57;;;18.23;;
10884;SDS011;5495;53.252;10.390;2023-01-30T00:12:11;32.40;;;18.93;;
10884;SDS011;5495;53.252;10.390;2023-01-30T00:14:44;33.00;;;18.67;;
10884;SDS011;5495;53.252;10.390;2023-01-30T00:17:11;32.77;;;18.90;;
10884;SDS011;5495;53.252;10.390;2023-01-30T00:19:40;30.50;;;18.40;;
10884;SDS011;5495;53.252;10.390;2023-01-30T00:22:08;31.80;;;18.87;;
10884;SDS011;5495;53.252;10.390;2023-01-30T00:24:35;33.57;;;19.10;;
10884;SDS011;5495;53.252;10.390;2023-01-30T00:27:02;37.43;;;19.60;;
10884;SDS011;5495;53.252;10.390;2023-01-30T00:29:30;37.60;;;20.37;;
10884;SDS011;5495;53.252;10.390;2023-01-30T00:31:58;36.43;;;21.27;;
10884;SDS011;5495;53.252;10.390;2023-01-30T00:34:25;34.23;;;20.17;;
10884;SDS011;5495;53.252;10.390;2023-01-30T00:36:54;35.67;;;19.40;;
10884;SDS011;5495;53.252;10.390;2023-01-30T00:39:30;34.47;;;20.07;;
10884;SDS011;5495;53.252;10.390;2023-01-30T00:41:57;33.33;;;19.97;;
10884;SDS011;5495;53.252;10.390;2023-01-30T00:44:42;37.17;;;20.50;;
10884;SDS011;5495;53.252;10.390;2023-01-30T00:47:28;35.43;;;19.07;;
10884;SDS011;5495;53.252;10.390;2023-01-30T00:49:55;34.47;;;19.33;;
10884;SDS011;5495;53.252;10.390;2023-01-30T00:52:24;35.13;;;19.47;;
10884;SDS011;5495;53.252;10.390;2023-01-30T00:54:52;36.90;;;19.97;;
10884;SDS011;5495;53.252;10.390;2023-01-30T00:57:24;31.73;;;18.30;;
10884;SDS011;5495;53.252;10.390;2023-01-30T00:59:52;35.27;;;20.03;;
10884;SDS011;5495;53.252;10.390;2023-01-30T01:02:21;33.80;;;19.13;;
10884;SDS011;5495;53.252;10.390;2023-01-30T01:04:49;36.73;;;20.43;;
10884;SDS011;5495;53.252;10.390;2023-01-30T01:07:17;31.20;;;19.30;;
10884;SDS011;5495;53.252;10.390;2023-01-30T01:09:46;32.93;;;19.87;;
10884;SDS011;5495;53.252;10.390;2023-01-30T01:12:13;33.03;;;20.40;;
10884;SDS011;5495;53.252;10.390;2023-01-30T01:14:42;31.00;;;18.87;;
10884;SDS011;5495;53.252;10.390;2023-01-30T01:17:09;33.83;;;19.73;;
10884;SDS011;5495;53.252;10.390;2023-01-30T01:19:37;35.87;;;21.03;;
10884;SDS011;5495;53.252;10.390;2023-01-30T01:22:20;37.60;;;20.63;;
10884;SDS011;5495;53.252;10.390;2023-01-30T01:24:49;36.40;;;21.07;;
10884;SDS011;5495;53.252;10.390;2023-01-30T01:27:17;36.33;;;21.00;;
10884;SDS011;5495;53.252;10.390;2023-01-30T01:29:44;34.50;;;19.60;;
10884;SDS011;5495;53.252;10.390;2023-01-30T01:32:13;34.97;;;20.00;;
10884;SDS011;5495;53.252;10.390;2023-01-30T01:34:41;35.17;;;19.50;;
10884;SDS011;5495;53.252;10.390;2023-01-30T01:37:08;35.10;;;20.17;;
10884;SDS011;5495;53.252;10.390;2023-01-30T01:39:36;35.20;;;20.17;;
10884;SDS011;5495;53.252;10.390;2023-01-30T01:42:33;31.17;;;19.97;;
10884;SDS011;5495;53.252;10.390;2023-01-30T01:45:06;35.37;;;20.40;;
10884;SDS011;5495;53.252;10.390;2023-01-30T01:47:44;31.23;;;19.03;;
10884;SDS011;5495;53.252;10.390;2023-01-30T01:50:21;31.43;;;18.90;;
10884;SDS011;5495;53.252;10.390;2023-01-30T01:52:51;34.90;;;20.03;;
10884;SDS011;5495;53.252;10.390;2023-01-30T01:55:20;30.23;;;18.80;;
10884;SDS011;5495;53.252;10.390;2023-01-30T01:57:54;31.50;;;18.77;;
10884;SDS011;5495;53.252;10.390;2023-01-30T02:00:24;28.83;;;18.17;;
10884;SDS011;5495;53.252;10.390;2023-01-30T02:02:53;29.47;;;18.23;;
10884;SDS011;5495;53.252;10.390;2023-01-30T02:05:23;31.87;;;18.27;;
10884;SDS011;5495;53.252;10.390;2023-01-30T02:07:58;34.83;;;18.80;;
10884;SDS011;5495;53.252;10.390;2023-01-30T02:10:30;32.97;;;19.57;;
10884;SDS011;5495;53.252;10.390;2023-01-30T02:13:07;37.80;;;20.10;;
10884;SDS011;5495;53.252;10.390;2023-01-30T02:15:35;37.13;;;21.23;;
10884;SDS011;5495;53.252;10.390;2023-01-30T02:18:05;34.17;;;20.43;;
10884;SDS011;5495;53.252;10.390;2023-01-30T02:20:37;34.13;;;19.53;;
10884;SDS011;5495;53.252;10.390;2023-01-30T02:26:44;36.27;;;20.43;;
10884;SDS011;5495;53.252;10.390;2023-01-30T02:29:52;37.90;;;20.93;;
10884;SDS011;5495;53.252;10.390;2023-01-30T02:32:47;38.97;;;21.03;;
10884;SDS011;5495;53.252;10.390;2023-01-30T02:35:25;34.50;;;20.87;;
10884;SDS011;5495;53.252;10.390;2023-01-30T02:38:06;32.93;;;20.10;;
10884;SDS011;5495;53.252;10.390;2023-01-30T02:40:48;40.77;;;21.13;;
10884;SDS011;5495;53.252;10.390;2023-01-30T02:43:27;33.87;;;19.73;;
10884;SDS011;5495;53.252;10.390;2023-01-30T02:46:01;31.13;;;19.00;;
10884;SDS011;5495;53.252;10.390;2023-01-30T02:48:37;32.90;;;19.03;;
10884;SDS011;5495;53.252;10.390;2023-01-30T02:51:08;34.53;;;18.87;;
10884;SDS011;5495;53.252;10.390;2023-01-30T02:53:39;30.00;;;17.73;;
10884;SDS011;5495;53.252;10.390;2023-01-30T02:56:07;31.77;;;17.90;;
10884;SDS011;5495;53.252;10.390;2023-01-30T02:58:38;26.73;;;16.20;;
10884;SDS011;5495;53.252;10.390;2023-01-30T03:04:21;27.63;;;15.67;;
10884;SDS011;5495;53.252;10.390;2023-01-30T03:07:11;26.63;;;15.57;;
10884;SDS011;5495;53.252;10.390;2023-01-30T03:09:50;23.07;;;14.93;;
10884;SDS011;5495;53.252;10.390;2023-01-30T03:12:30;27.27;;;14.83;;
10884;SDS011;5495;53.252;10.390;2023-01-30T03:15:07;22.60;;;13.23;;
10884;SDS011;5495;53.252;10.390;2023-01-30T03:17:38;22.07;;;13.73;;
10884;SDS011;5495;53.252;10.390;2023-01-30T03:20:11;22.17;;;13.53;;
10884;SDS011;5495;53.252;10.390;2023-01-30T03:22:40;22.93;;;13.27;;
10884;SDS011;5495;53.252;10.390;2023-01-30T03:25:08;21.37;;;12.60;;
10884;SDS011;5495;53.252;10.390;2023-01-30T03:27:38;21.20;;;12.93;;
10884;SDS011;5495;53.252;10.390;2023-01-30T03:30:07;21.67;;;12.27;;
10884;SDS011;5495;53.252;10.390;2023-01-30T03:32:35;19.73;;;11.77;;
10884;SDS011;5495;53.252;10.390;2023-01-30T03:35:02;21.43;;;12.90;;
10884;SDS011;5495;53.252;10.390;2023-01-30T03:37:31;19.23;;;12.17;;
10884;SDS011;5495;53.252;10.390;2023-01-30T03:39:59;21.03;;;12.30;;
10884;SDS011;5495;53.252;10.390;2023-01-30T03:42:27;18.67;;;12.13;;
10884;SDS011;5495;53.252;10.390;2023-01-30T03:44:55;19.50;;;12.63;;
10884;SDS011;5495;53.252;10.390;2023-01-30T03:47:23;18.77;;;11.10;;
10884;SDS011;5495;53.252;10.390;2023-01-30T03:49:55;18.47;;;11.97;;
10884;SDS011;5495;53.252;10.390;2023-01-30T03:52:23;17.20;;;11.20;;
10884;SDS011;5495;53.252;10.390;2023-01-30T03:54:52;19.67;;;11.03;;
10884;SDS011;5495;53.252;10.390;2023-01-30T03:57:19;19.70;;;10.60;;
10884;SDS011;5495;53.252;10.390;2023-01-30T03:59:49;15.83;;;10.30;;
10884;SDS011;5495;53.252;10.390;2023-01-30T04:02:16;18.77;;;11.10;;
10884;SDS011;5495;53.252;10.390;2023-01-30T04:04:47;15.77;;;10.47;;
10884;SDS011;5495;53.252;10.390;2023-01-30T04:07:15;15.30;;;10.30;;
10884;SDS011;5495;53.252;10.390;2023-01-30T04:09:43;15.20;;;9.83;;
10884;SDS011;5495;53.252;10.390;2023-01-30T04:12:12;15.77;;;9.87;;
10884;SDS011;5495;53.252;10.390;2023-01-30T04:14:42;14.40;;;9.30;;
10884;SDS011;5495;53.252;10.390;2023-01-30T04:17:09;15.53;;;9.40;;
10884;SDS011;5495;53.252;10.390;2023-01-30T04:19:39;13.93;;;9.70;;
10884;SDS011;5495;53.252;10.390;2023-01-30T04:22:06;14.03;;;8.80;;
10884;SDS011;5495;53.252;10.390;2023-01-30T04:24:34;14.67;;;9.50;;
10884;SDS011;5495;53.252;10.390;2023-01-30T04:27:01;11.20;;;7.63;;
10884;SDS011;5495;53.252;10.390;2023-01-30T04:29:30;13.53;;;8.23;;
10884;SDS011;5495;53.252;10.390;2023-01-30T04:32:06;11.90;;;8.17;;
10884;SDS011;5495;53.252;10.390;2023-01-30T04:34:34;14.23;;;9.13;;
10884;SDS011;5495;53.252;10.390;2023-01-30T04:37:01;15.50;;;9.20;;
10884;SDS011;5495;53.252;10.390;2023-01-30T04:39:42;12.60;;;8.67;;
10884;SDS011;5495;53.252;10.390;2023-01-30T04:42:09;11.80;;;8.57;;
10884;SDS011;5495;53.252;10.390;2023-01-30T04:44:38;13.07;;;8.07;;
10884;SDS011;5495;53.252;10.390;2023-01-30T04:47:06;11.73;;;8.00;;
10884;SDS011;5495;53.252;10.390;2023-01-30T04:49:38;13.43;;;8.50;;
10884;SDS011;5495;53.252;10.390;2023-01-30T04:52:05;12.30;;;8.53;;
10884;SDS011;5495;53.252;10.390;2023-01-30T04:54:32;13.17;;;8.50;;
10884;SDS011;5495;53.252;10.390;2023-01-30T04:57:00;13.33;;;8.40;;
10884;SDS011;5495;53.252;10.390;2023-01-30T04:59:27;12.63;;;7.97;;
10884;SDS011;5495;53.252;10.390;2023-01-30T05:01:56;12.63;;;7.57;;
10884;SDS011;5495;53.252;10.390;2023-01-30T05:04:24;12.03;;;7.63;;
10884;SDS011;5495;53.252;10.390;2023-01-30T05:06:51;11.17;;;6.50;;
10884;SDS011;5495;53.252;10.390;2023-01-30T05:09:18;10.13;;;5.83;;
10884;SDS011;5495;53.252;10.390;2023-01-30T05:11:47;12.37;;;6.47;;
10884;SDS011;5495;53.252;10.390;2023-01-30T05:14:19;8.53;;;5.87;;
10884;SDS011;5495;53.252;10.390;2023-01-30T05:16:47;7.57;;;5.03;;
10884;SDS011;5495;53.252;10.390;2023-01-30T05:19:15;7.40;;;4.60;;
10884;SDS011;5495;53.252;10.390;2023-01-30T05:21:43;7.00;;;4.43;;
10884;SDS011;5495;53.252;10.390;2023-01-30T05:24:10;6.43;;;3.97;;
10884;SDS011;5495;53.252;10.390;2023-01-30T05:26:39;5.93;;;3.93;;
10884;SDS011;5495;53.252;10.390;2023-01-30T05:29:09;7.80;;;3.50;;
10884;SDS011;5495;53.252;10.390;2023-01-30T05:34:33;7.40;;;3.13;;
10884;SDS011;5495;53.252;10.390;2023-01-30T05:37:00;6.30;;;2.67;;
10884;SDS011;5495;53.252;10.390;2023-01-30T05:39:33;6.80;;;2.90;;
10884;SDS011;5495;53.252;10.390;2023-01-30T05:42:01;3.23;;;2.50;;
10884;SDS011;5495;53.252;10.390;2023-01-30T05:44:29;5.73;;;2.70;;
10884;SDS011;5495;53.252;10.390;2023-01-30T05:46:56;4.60;;;1.93;;
10884;SDS011;5495;53.252;10.390;2023-01-30T05:49:29;4.97;;;1.40;;
10884;SDS011;5495;53.252;10.390;2023-01-30T05:51:57;6.93;;;1.53;;
10884;SDS011;5495;53.252;10.390;2023-01-30T05:54:25;4.90;;;1.90;;
10884;SDS011;5495;53.252;10.390;2023-01-30T05:56:52;6.30;;;1.60;;
10884;SDS011;5495;53.252;10.390;2023-01-30T05:59:28;5.57;;;1.37;;
10884;SDS011;5495;53.252;10.390;2023-01-30T06:01:55;3.67;;;1.30;;
10884;SDS011;5495;53.252;10.390;2023-01-30T06:04:25;4.73;;;1.30;;
10884;SDS011;5495;53.252;10.390;2023-01-30T06:06:58;4.47;;;1.40;;
10884;SDS011;5495;53.252;10.390;2023-01-30T06:09:25;5.37;;;1.47;;
10884;SDS011;5495;53.252;10.390;2023-01-30T06:11:57;5.27;;;1.30;;
10884;SDS011;5495;53.252;10.390;2023-01-30T06:14:25;5.53;;;1.50;;
10884;SDS011;5495;53.252;10.390;2023-01-30T06:16:57;4.67;;;1.47;;
10884;SDS011;5495;53.252;10.390;2023-01-30T06:19:27;6.00;;;1.17;;
10884;SDS011;5495;53.252;10.390;2023-01-30T06:22:02;7.43;;;1.50;;
10884;SDS011;5495;53.252;10.390;2023-01-30T06:24:31;3.80;;;1.13;;
10884;SDS011;5495;53.252;10.390;2023-01-30T06:26:59;4.20;;;1.20;;
10884;SDS011;5495;53.252;10.390;2023-01-30T06:29:26;7.97;;;1.43;;
10884;SDS011;5495;53.252;10.390;2023-01-30T06:31:55;6.70;;;1.53;;
10884;SDS011;5495;53.252;10.390;2023-01-30T06:34:40;5.90;;;1.60;;
10884;SDS011;5495;53.252;10.390;2023-01-30T06:37:10;5.50;;;1.23;;
10884;SDS011;5495;53.252;10.390;2023-01-30T06:39:39;4.37;;;1.40;;
10884;SDS011;5495;53.252;10.390;2023-01-30T06:42:17;5.67;;;1.53;;
10884;SDS011;5495;53.252;10.390;2023-01-30T06:44:44;7.73;;;1.50;;
10884;SDS011;5495;53.252;10.390;2023-01-30T06:47:12;5.87;;;1.17;;
10884;SDS011;5495;53.252;10.390;2023-01-30T06:49:39;7.90;;;1.90;;
10884;SDS011;5495;53.252;10.390;2023-01-30T06:52:10;7.80;;;1.60;;
10884;SDS011;5495;53.252;10.390;2023-01-30T06:54:45;6.93;;;1.87;;
10884;SDS011;5495;53.252;10.390;2023-01-30T06:57:13;9.90;;;1.70;;
10884;SDS011;5495;53.252;10.390;2023-01-30T06:59:40;9.63;;;1.87;;
10884;SDS011;5495;53.252;10.390;2023-01-30T07:02:10;6.37;;;1.63;;
10884;SDS011;5495;53.252;10.390;2023-01-30T07:04:39;9.00;;;1.93;;
10884;SDS011;5495;53.252;10.390;2023-01-30T07:07:06;7.97;;;1.67;;
10884;SDS011;5495;53.252;10.390;2023-01-30T07:09:37;4.90;;;1.37;;
10884;SDS011;5495;53.252;10.390;2023-01-30T07:12:05;7.67;;;1.53;;
10884;SDS011;5495;53.252;10.390;2023-01-30T07:14:32;7.20;;;1.47;;
10884;SDS011;5495;53.252;10.390;2023-01-30T07:17:04;5.53;;;1.47;;
10884;SDS011;5495;53.252;10.390;2023-01-30T07:19:35;7.80;;;1.80;;
10884;SDS011;5495;53.252;10.390;2023-01-30T07:22:03;7.30;;;1.70;;
10884;SDS011;5495;53.252;10.390;2023-01-30T07:24:31;7.23;;;1.50;;
10884;SDS011;5495;53.252;10.390;2023-01-30T07:26:59;6.63;;;1.40;;
10884;SDS011;5495;53.252;10.390;2023-01-30T07:29:27;6.73;;;1.23;;
10884;SDS011;5495;53.252;10.390;2023-01-30T07:32:06;10.87;;;2.07;;
10884;SDS011;5495;53.252;10.390;2023-01-30T07:34:37;8.90;;;1.80;;
10884;SDS011;5495;53.252;10.390;2023-01-30T07:37:06;7.13;;;1.90;;
10884;SDS011;5495;53.252;10.390;2023-01-30T07:39:35;8.33;;;2.10;;
10884;SDS011;5495;53.252;10.390;2023-01-30T07:42:06;7.47;;;1.80;;
10884;SDS011;5495;53.252;10.390;2023-01-30T07:44:36;8.10;;;1.47;;
10884;SDS011;5495;53.252;10.390;2023-01-30T07:47:11;10.90;;;2.20;;
10884;SDS011;5495;53.252;10.390;2023-01-30T07:49:40;12.20;;;2.20;;
10884;SDS011;5495;53.252;10.390;2023-01-30T07:52:07;19.37;;;2.67;;
10884;SDS011;5495;53.252;10.390;2023-01-30T07:54:35;11.10;;;2.73;;
10884;SDS011;5495;53.252;10.390;2023-01-30T07:57:03;16.70;;;2.80;;
10884;SDS011;5495;53.252;10.390;2023-01-30T07:59:39;12.13;;;2.50;;
10884;SDS011;5495;53.252;10.390;2023-01-30T08:02:07;19.40;;;3.33;;
10884;SDS011;5495;53.252;10.390;2023-01-30T08:04:35;20.10;;;2.60;;
10884;SDS011;5495;53.252;10.390;2023-01-30T08:07:03;17.07;;;3.40;;
10884;SDS011;5495;53.252;10.390;2023-01-30T08:09:31;19.03;;;3.13;;
10884;SDS011;5495;53.252;10.390;2023-01-30T08:11:59;16.20;;;4.40;;
10884;SDS011;5495;53.252;10.390;2023-01-30T08:14:26;22.80;;;4.00;;
10884;SDS011;5495;53.252;10.390;2023-01-30T08:16:56;23.20;;;3.60;;
10884;SDS011;5495;53.252;10.390;2023-01-30T08:19:25;20.50;;;3.87;;
10884;SDS011;5495;53.252;10.390;2023-01-30T08:21:53;26.20;;;4.57;;
10884;SDS011;5495;53.252;10.390;2023-01-30T08:24:20;23.83;;;3.80;;
10884;SDS011;5495;53.252;10.390;2023-01-30T08:26:52;24.00;;;4.50;;
10884;SDS011;5495;53.252;10.390;2023-01-30T08:29:20;30.70;;;4.17;;
10884;SDS011;5495;53.252;10.390;2023-01-30T08:31:47;17.27;;;4.00;;
10884;SDS011;5495;53.252;10.390;2023-01-30T08:34:20;20.87;;;3.67;;
10884;SDS011;5495;53.252;10.390;2023-01-30T08:36:48;29.03;;;4.83;;
10884;SDS011;5495;53.252;10.390;2023-01-30T08:39:25;21.67;;;4.30;;
10884;SDS011;5495;53.252;10.390;2023-01-30T08:42:00;24.67;;;4.93;;
10884;SDS011;5495;53.252;10.390;2023-01-30T08:44:27;21.57;;;3.67;;
10884;SDS011;5495;53.252;10.390;2023-01-30T08:46:55;20.43;;;3.97;;
10884;SDS011;5495;53.252;10.390;2023-01-30T08:49:24;23.33;;;5.30;;
10884;SDS011;5495;53.252;10.390;2023-01-30T08:51:52;24.23;;;4.37;;
10884;SDS011;5495;53.252;10.390;2023-01-30T08:54:20;24.73;;;3.97;;
10884;SDS011;5495;53.252;10.390;2023-01-30T08:56:47;20.77;;;3.67;;
10884;SDS011;5495;53.252;10.390;2023-01-30T08:59:15;17.63;;;4.23;;
10884;SDS011;5495;53.252;10.390;2023-01-30T09:01:44;19.30;;;3.70;;
10884;SDS011;5495;53.252;10.390;2023-01-30T09:04:12;15.67;;;3.37;;
10884;SDS011;5495;53.252;10.390;2023-01-30T09:06:41;20.77;;;4.67;;
10884;SDS011;5495;53.252;10.390;2023-01-30T09:09:09;19.13;;;3.73;;
10884;SDS011;5495;53.252;10.390;2023-01-30T09:11:36;28.47;;;4.63;;
10884;SDS011;5495;53.252;10.390;2023-01-30T09:14:05;17.83;;;3.90;;
10884;SDS011;5495;53.252;10.390;2023-01-30T09:16:33;23.20;;;4.30;;
10884;SDS011;5495;53.252;10.390;2023-01-30T09:19:03;30.10;;;4.80;;
10884;SDS011;5495;53.252;10.390;2023-01-30T09:21:31;20.57;;;4.70;;
10884;SDS011;5495;53.252;10.390;2023-01-30T09:24:01;17.67;;;4.23;;
10884;SDS011;5495;53.252;10.390;2023-01-30T09:26:29;29.33;;;4.57;;
10884;SDS011;5495;53.252;10.390;2023-01-30T09:28:56;19.63;;;3.83;;
10884;SDS011;5495;53.252;10.390;2023-01-30T09:31:24;19.77;;;4.27;;
10884;SDS011;5495;53.252;10.390;2023-01-30T09:33:52;18.77;;;3.77;;
10884;SDS011;5495;53.252;10.390;2023-01-30T09:36:19;33.80;;;5.00;;
10884;SDS011;5495;53.252;10.390;2023-01-30T09:38:46;16.53;;;3.30;;
10884;SDS011;5495;53.252;10.390;2023-01-30T09:41:39;22.13;;;3.40;;
10884;SDS011;5495;53.252;10.390;2023-01-30T09:47:20;27.73;;;4.47;;
10884;SDS011;5495;53.252;10.390;2023-01-30T09:49:58;20.50;;;3.90;;
10884;SDS011;5495;53.252;10.390;2023-01-30T09:52:49;21.93;;;4.10;;
10884;SDS011;5495;53.252;10.390;2023-01-30T09:55:22;23.07;;;4.07;;
10884;SDS011;5495;53.252;10.390;2023-01-30T09:57:55;14.47;;;3.20;;
10884;SDS011;5495;53.252;10.390;2023-01-30T10:00:25;20.77;;;3.40;;
10884;SDS011;5495;53.252;10.390;2023-01-30T10:03:01;23.30;;;3.60;;
10884;SDS011;5495;53.252;10.390;2023-01-30T10:05:35;21.87;;;3.90;;
10884;SDS011;5495;53.252;10.390;2023-01-30T10:11:20;21.40;;;4.37;;
10884;SDS011;5495;53.252;10.390;2023-01-30T10:14:09;29.53;;;4.23;;
10884;SDS011;5495;53.252;10.390;2023-01-30T10:16:58;12.17;;;3.43;;
10884;SDS011;5495;53.252;10.390;2023-01-30T10:19:38;23.53;;;4.00;;
10884;SDS011;5495;53.252;10.390;2023-01-30T10:22:20;18.80;;;3.77;;
10884;SDS011;5495;53.252;10.390;2023-01-30T10:25:02;25.90;;;4.17;;
10884;SDS011;5495;53.252;10.390;2023-01-30T10:27:47;17.53;;;3.83;;
10884;SDS011;5495;53.252;10.390;2023-01-30T10:30:21;23.10;;;4.20;;
10884;SDS011;5495;53.252;10.390;2023-01-30T10:32:49;24.73;;;3.70;;
10884;SDS011;5495;53.252;10.390;2023-01-30T10:35:23;15.93;;;3.70;;
10884;SDS011;5495;53.252;10.390;2023-01-30T10:38:02;17.33;;;4.20;;
10884;SDS011;5495;53.252;10.390;2023-01-30T10:40:38;20.37;;;3.70;;
10884;SDS011;5495;53.252;10.390;2023-01-30T10:43:12;14.40;;;3.97;;
10884;SDS011;5495;53.252;10.390;2023-01-30T10:45:48;26.43;;;4.03;;
10884;SDS011;5495;53.252;10.390;2023-01-30T10:48:32;21.90;;;3.83;;
10884;SDS011;5495;53.252;10.390;2023-01-30T10:51:19;18.33;;;3.37;;
10884;SDS011;5495;53.252;10.390;2023-01-30T10:54:00;20.63;;;3.80;;
10884;SDS011;5495;53.252;10.390;2023-01-30T10:56:41;23.83;;;4.00;;
10884;SDS011;5495;53.252;10.390;2023-01-30T10:59:19;20.53;;;3.67;;
10884;SDS011;5495;53.252;10.390;2023-01-30T11:01:54;18.00;;;3.57;;
10884;SDS011;5495;53.252;10.390;2023-01-30T11:04:28;19.77;;;3.80;;
10884;SDS011;5495;53.252;10.390;2023-01-30T11:07:01;20.53;;;3.87;;
10884;SDS011;5495;53.252;10.390;2023-01-30T11:09:39;19.90;;;4.10;;
10884;SDS011;5495;53.252;10.390;2023-01-30T11:12:09;21.83;;;3.63;;
10884;SDS011;5495;53.252;10.390;2023-01-30T11:14:49;15.17;;;2.97;;
10884;SDS011;5495;53.252;10.390;2023-01-30T11:17:34;14.80;;;3.90;;
10884;SDS011;5495;53.252;10.390;2023-01-30T11:20:11;20.83;;;3.90;;
10884;SDS011;5495;53.252;10.390;2023-01-30T11:22:46;14.37;;;3.67;;
10884;SDS011;5495;53.252;10.390;2023-01-30T11:25:19;15.83;;;3.13;;
10884;SDS011;5495;53.252;10.390;2023-01-30T11:27:52;17.57;;;3.23;;
10884;SDS011;5495;53.252;10.390;2023-01-30T11:30:21;19.00;;;3.27;;
10884;SDS011;5495;53.252;10.390;2023-01-30T11:33:03;17.00;;;3.50;;
10884;SDS011;5495;53.252;10.390;2023-01-30T11:35:40;11.10;;;3.27;;
10884;SDS011;5495;53.252;10.390;2023-01-30T11:38:22;20.70;;;4.03;;
10884;SDS011;5495;53.252;10.390;2023-01-30T11:41:00;15.47;;;3.37;;
10884;SDS011;5495;53.252;10.390;2023-01-30T11:43:31;15.47;;;3.07;;
10884;SDS011;5495;53.252;10.390;2023-01-30T11:45:59;16.27;;;3.10;;
10884;SDS011;5495;53.252;10.390;2023-01-30T11:48:29;17.93;;;3.57;;
10884;SDS011;5495;53.252;10.390;2023-01-30T11:50:59;12.77;;;2.27;;
10884;SDS011;5495;53.252;10.390;2023-01-30T11:53:29;10.33;;;2.47;;
10884;SDS011;5495;53.252;10.390;2023-01-30T11:56:05;11.43;;;2.03;;
10884;SDS011;5495;53.252;10.390;2023-01-30T11:58:36;8.90;;;1.70;;
10884;SDS011;5495;53.252;10.390;2023-01-30T12:01:15;3.87;;;1.10;;
10884;SDS011;5495;53.252;10.390;2023-01-30T12:03:52;2.83;;;1.20;;
10884;SDS011;5495;53.252;10.390;2023-01-30T12:06:21;3.50;;;0.90;;
10884;SDS011;5495;53.252;10.390;2023-01-30T12:08:51;6.22;;;1.40;;
10884;SDS011;5495;53.252;10.390;2023-01-30T12:11:24;6.20;;;1.17;;
10884;SDS011;5495;53.252;10.390;2023-01-30T12:13:56;3.00;;;0.90;;
10884;SDS011;5495;53.252;10.390;2023-01-30T12:16:39;4.47;;;1.10;;
10884;SDS011;5495;53.252;10.390;2023-01-30T12:19:22;7.97;;;1.30;;
10884;SDS011;5495;53.252;10.390;2023-01-30T12:21:58;7.47;;;1.30;;
10884;SDS011;5495;53.252;10.390;2023-01-30T12:24:34;5.83;;;1.30;;
10884;SDS011;5495;53.252;10.390;2023-01-30T12:27:03;2.13;;;1.10;;
10884;SDS011;5495;53.252;10.390;2023-01-30T12:29:40;3.87;;;1.10;;
10884;SDS011;5495;53.252;10.390;2023-01-30T12:32:17;2.93;;;1.10;;
10884;SDS011;5495;53.252;10.390;2023-01-30T12:34:49;4.67;;;1.67;;
10884;SDS011;5495;53.252;10.390;2023-01-30T12:37:21;3.63;;;1.57;;
10884;SDS011;5495;53.252;10.390;2023-01-30T12:40:01;7.47;;;1.40;;
10884;SDS011;5495;53.252;10.390;2023-01-30T12:42:46;8.27;;;1.70;;
10884;SDS011;5495;53.252;10.390;2023-01-30T12:45:30;10.67;;;1.70;;
10884;SDS011;5495;53.252;10.390;2023-01-30T12:48:06;6.17;;;1.47;;
10884;SDS011;5495;53.252;10.390;2023-01-30T12:51:15;7.63;;;1.93;;
10884;SDS011;5495;53.252;10.390;2023-01-30T12:53:55;11.70;;;2.23;;
10884;SDS011;5495;53.252;10.390;2023-01-30T12:56:41;9.77;;;2.07;;
10884;SDS011;5495;53.252;10.390;2023-01-30T12:59:21;8.30;;;2.10;;
10884;SDS011;5495;53.252;10.390;2023-01-30T13:01:58;8.70;;;1.70;;
10884;SDS011;5495;53.252;10.390;2023-01-30T13:04:43;13.97;;;2.47;;
10884;SDS011;5495;53.252;10.390;2023-01-30T13:07:23;7.33;;;1.70;;
10884;SDS011;5495;53.252;10.390;2023-01-30T13:10:08;7.83;;;1.97;;
10884;SDS011;5495;53.252;10.390;2023-01-30T13:12:46;7.10;;;1.63;;
10884;SDS011;5495;53.252;10.390;2023-01-30T13:15:20;9.77;;;2.23;;
10884;SDS011;5495;53.252;10.390;2023-01-30T13:17:57;11.33;;;2.07;;
10884;SDS011;5495;53.252;10.390;2023-01-30T13:20:35;14.47;;;3.13;;
10884;SDS011;5495;53.252;10.390;2023-01-30T13:23:17;10.60;;;2.17;;
10884;SDS011;5495;53.252;10.390;2023-01-30T13:25:53;13.60;;;2.10;;
10884;SDS011;5495;53.252;10.390;2023-01-30T13:28:31;18.97;;;2.83;;
10884;SDS011;5495;53.252;10.390;2023-01-30T13:31:03;13.07;;;2.77;;
10884;SDS011;5495;53.252;10.390;2023-01-30T13:33:34;16.83;;;2.70;;
10884;SDS011;5495;53.252;10.390;2023-01-30T13:36:07;12.20;;;2.80;;
10884;SDS011;5495;53.252;10.390;2023-01-30T13:38:43;14.40;;;2.80;;
10884;SDS011;5495;53.252;10.390;2023-01-30T13:41:18;16.60;;;3.53;;
10884;SDS011;5495;53.252;10.390;2023-01-30T13:43:49;22.63;;;3.13;;
10884;SDS011;5495;53.252;10.390;2023-01-30T13:46:21;19.93;;;3.93;;
10884;SDS011;5495;53.252;10.390;2023-01-30T13:49:02;19.63;;;3.40;;
10884;SDS011;5495;53.252;10.390;2023-01-30T13:51:45;17.77;;;3.53;;
10884;SDS011;5495;53.252;10.390;2023-01-30T13:57:17;13.37;;;3.40;;
10884;SDS011;5495;53.252;10.390;2023-01-30T14:06:08;19.80;;;3.40;;
10884;SDS011;5495;53.252;10.390;2023-01-30T14:08:39;17.83;;;3.13;;
10884;SDS011;5495;53.252;10.390;2023-01-30T14:11:26;14.93;;;3.47;;
10884;SDS011;5495;53.252;10.390;2023-01-30T14:14:00;15.77;;;2.90;;
10884;SDS011;5495;53.252;10.390;2023-01-30T14:16:41;12.47;;;3.13;;
10884;SDS011;5495;53.252;10.390;2023-01-30T14:19:24;18.87;;;3.80;;
10884;SDS011;5495;53.252;10.390;2023-01-30T14:21:59;18.60;;;2.97;;
10884;SDS011;5495;53.252;10.390;2023-01-30T14:24:32;18.37;;;3.13;;
10884;SDS011;5495;53.252;10.390;2023-01-30T14:27:03;8.87;;;2.67;;
10884;SDS011;5495;53.252;10.390;2023-01-30T14:29:58;16.93;;;3.43;;
10884;SDS011;5495;53.252;10.390;2023-01-30T14:35:40;15.73;;;3.53;;
10884;SDS011;5495;53.252;10.390;2023-01-30T14:38:08;13.90;;;3.27;;
10884;SDS011;5495;53.252;10.390;2023-01-30T14:40:44;17.50;;;3.67;;
10884;SDS011;5495;53.252;10.390;2023-01-30T14:43:44;17.00;;;2.80;;
10884;SDS011;5495;53.252;10.390;2023-01-30T14:49:19;17.47;;;3.40;;
10884;SDS011;5495;53.252;10.390;2023-01-30T14:51:54;11.60;;;2.63;;
10884;SDS011;5495;53.252;10.390;2023-01-30T14:57:27;17.33;;;3.30;;
10884;SDS011;5495;53.252;10.390;2023-01-30T15:00:00;14.63;;;3.50;;
10884;SDS011;5495;53.252;10.390;2023-01-30T15:02:33;17.07;;;3.40;;
10884;SDS011;5495;53.252;10.390;2023-01-30T15:05:08;18.07;;;3.40;;
10884;SDS011;5495;53.252;10.390;2023-01-30T15:07:40;21.60;;;3.77;;
10884;SDS011;5495;53.252;10.390;2023-01-30T15:10:13;21.93;;;3.57;;
10884;SDS011;5495;53.252;10.390;2023-01-30T15:13:01;22.23;;;4.03;;
10884;SDS011;5495;53.252;10.390;2023-01-30T15:15:53;14.40;;;3.37;;
10884;SDS011;5495;53.252;10.390;2023-01-30T15:18:39;21.97;;;4.00;;
10884;SDS011;5495;53.252;10.390;2023-01-30T15:24:19;15.17;;;3.63;;
10884;SDS011;5495;53.252;10.390;2023-01-30T15:27:10;14.93;;;3.40;;
10884;SDS011;5495;53.252;10.390;2023-01-30T15:32:45;18.37;;;3.27;;
10884;SDS011;5495;53.252;10.390;2023-01-30T15:35:20;24.73;;;3.77;;
10884;SDS011;5495;53.252;10.390;2023-01-30T15:37:55;12.83;;;3.57;;
10884;SDS011;5495;53.252;10.390;2023-01-30T15:40:24;15.83;;;3.80;;
10884;SDS011;5495;53.252;10.390;2023-01-30T15:43:00;27.97;;;4.43;;
10884;SDS011;5495;53.252;10.390;2023-01-30T15:45:46;26.00;;;4.47;;
10884;SDS011;5495;53.252;10.390;2023-01-30T15:48:39;22.77;;;3.47;;